createdAt,value
2017-11-10T00:00:00.605Z,783.73
2017-11-10T00:00:05.101Z,783.75
2017-11-10T00:00:09.597Z,783.72
2017-11-10T00:00:13.821Z,783.71
2017-11-10T00:00:18.180Z,783.72
2017-11-10T00:00:22.393Z,783.75
2017-11-10T00:00:26.480Z,783.77
2017-11-10T00:00:30.836Z,783.71
2017-11-10T00:00:35.312Z,783.69
2017-11-10T00:00:39.811Z,783.7
2017-11-10T00:00:44.206Z,783.74
2017-11-10T00:00:48.558Z,783.74
2017-11-10T00:00:52.791Z,783.77
2017-11-10T00:00:57.292Z,783.73
2017-11-10T00:01:01.637Z,783.75
2017-11-10T00:01:05.868Z,783.76
2017-11-10T00:01:10.363Z,783.74
2017-11-10T00:01:14.719Z,783.75
2017-11-10T00:01:18.943Z,783.73
2017-11-10T00:01:23.170Z,783.71
2017-11-10T00:01:27.541Z,783.74
2017-11-10T00:01:31.891Z,783.74
2017-11-10T00:01:36.252Z,783.73
2017-11-10T00:01:40.764Z,783.74
2017-11-10T00:01:45.246Z,783.75
2017-11-10T00:01:49.608Z,783.76
2017-11-10T00:01:54.129Z,783.74
2017-11-10T00:01:58.493Z,783.69
2017-11-10T00:02:02.845Z,783.75
2017-11-10T00:02:07.379Z,783.72
2017-11-10T00:02:11.630Z,783.7
2017-11-10T00:02:15.984Z,783.69
2017-11-10T00:02:20.070Z,783.64
2017-11-10T00:02:24.557Z,783.7
2017-11-10T00:02:29.055Z,783.69
2017-11-10T00:02:33.568Z,783.67
2017-11-10T00:02:37.783Z,783.72
2017-11-10T00:02:42.276Z,783.72
2017-11-10T00:02:46.648Z,783.73
2017-11-10T00:02:51.120Z,783.75
2017-11-10T00:02:55.481Z,783.73
2017-11-10T00:02:59.836Z,783.72
2017-11-10T00:03:04.333Z,783.72
2017-11-10T00:03:08.692Z,783.7
2017-11-10T00:03:13.053Z,783.74
2017-11-10T00:03:17.532Z,783.73
2017-11-10T00:03:21.764Z,783.72
2017-11-10T00:03:26.250Z,783.69
2017-11-10T00:03:30.612Z,783.72
2017-11-10T00:03:34.962Z,783.68
2017-11-10T00:03:39.098Z,783.72
2017-11-10T00:03:43.587Z,783.72
2017-11-10T00:03:47.935Z,783.72
2017-11-10T00:03:52.294Z,783.72
2017-11-10T00:03:56.789Z,783.7
2017-11-10T00:04:01.156Z,783.7
2017-11-10T00:04:05.528Z,783.71
2017-11-10T00:04:09.884Z,783.71
2017-11-10T00:04:13.969Z,783.67
2017-11-10T00:04:18.329Z,783.7
2017-11-10T00:04:22.558Z,783.73
2017-11-10T00:04:27.038Z,783.72
2017-11-10T00:04:31.519Z,783.73
2017-11-10T00:04:35.871Z,783.71
2017-11-10T00:04:40.224Z,783.71
2017-11-10T00:04:44.710Z,783.71
2017-11-10T00:04:48.962Z,783.69
2017-11-10T00:04:53.320Z,783.73
2017-11-10T00:04:57.672Z,783.68
2017-11-10T00:05:02.062Z,783.69
2017-11-10T00:05:06.424Z,783.69
2017-11-10T00:05:10.781Z,783.72
2017-11-10T00:05:15.133Z,783.7
2017-11-10T00:05:19.272Z,783.7
2017-11-10T00:05:23.639Z,783.69
2017-11-10T00:05:27.989Z,783.74
2017-11-10T00:05:32.337Z,783.73
2017-11-10T00:05:36.824Z,783.72
2017-11-10T00:05:41.323Z,783.68
2017-11-10T00:05:45.803Z,783.69
2017-11-10T00:05:50.021Z,783.69
2017-11-10T00:05:54.514Z,783.67
2017-11-10T00:05:58.999Z,783.67
2017-11-10T00:06:03.237Z,783.66
2017-11-10T00:06:07.060Z,783.69
2017-11-10T00:06:11.536Z,783.72
2017-11-10T00:06:15.888Z,783.71
2017-11-10T00:06:19.982Z,783.74
2017-11-10T00:06:24.469Z,783.72
2017-11-10T00:06:28.823Z,783.76
2017-11-10T00:06:33.347Z,783.74
2017-11-10T00:06:37.406Z,783.7
2017-11-10T00:06:41.619Z,783.74
2017-11-10T00:06:46.109Z,783.72
2017-11-10T00:06:50.594Z,783.74
2017-11-10T00:06:55.083Z,783.74
2017-11-10T00:06:59.454Z,783.73
2017-11-10T00:07:04.041Z,783.65
2017-11-10T00:07:08.405Z,783.71
2017-11-10T00:07:12.632Z,783.71
2017-11-10T00:07:17.141Z,783.72
2017-11-10T00:07:21.243Z,783.7
2017-11-10T00:07:25.472Z,783.7
2017-11-10T00:07:29.828Z,783.7
2017-11-10T00:07:34.184Z,783.71
2017-11-10T00:07:38.536Z,783.71
2017-11-10T00:07:42.622Z,783.73
2017-11-10T00:07:46.839Z,783.71
2017-11-10T00:07:51.061Z,783.7
2017-11-10T00:07:55.290Z,783.71
2017-11-10T00:07:59.511Z,783.72
2017-11-10T00:08:04.159Z,783.7
2017-11-10T00:08:08.528Z,783.72
2017-11-10T00:08:13.015Z,783.75
2017-11-10T00:08:17.103Z,783.72
2017-11-10T00:08:21.463Z,783.74
2017-11-10T00:08:25.964Z,783.73
2017-11-10T00:08:30.183Z,783.73
2017-11-10T00:08:34.687Z,783.72
2017-11-10T00:08:39.056Z,783.67
2017-11-10T00:08:43.283Z,783.67
2017-11-10T00:08:47.780Z,783.74
2017-11-10T00:08:52.290Z,783.76
2017-11-10T00:08:56.507Z,783.72
2017-11-10T00:09:01.008Z,783.7
2017-11-10T00:09:05.606Z,783.64
2017-11-10T00:09:09.820Z,783.74
2017-11-10T00:09:14.307Z,783.74
2017-11-10T00:09:18.658Z,783.74
2017-11-10T00:09:22.740Z,783.73
2017-11-10T00:09:27.230Z,783.71
2017-11-10T00:09:31.460Z,783.66
2017-11-10T00:09:35.978Z,783.67
2017-11-10T00:09:40.472Z,783.66
2017-11-10T00:09:44.968Z,783.73
2017-11-10T00:09:49.317Z,783.73
2017-11-10T00:09:53.805Z,783.7
2017-11-10T00:09:58.175Z,783.74
2017-11-10T00:10:02.534Z,783.74
2017-11-10T00:10:06.897Z,783.72
2017-11-10T00:10:11.390Z,783.73
2017-11-10T00:10:15.874Z,783.74
2017-11-10T00:10:20.218Z,783.74
2017-11-10T00:10:24.569Z,783.71
2017-11-10T00:10:29.054Z,783.76
2017-11-10T00:10:33.281Z,783.74
2017-11-10T00:10:37.647Z,783.76
2017-11-10T00:10:41.997Z,783.74
2017-11-10T00:10:46.356Z,783.73
2017-11-10T00:10:50.860Z,783.74
2017-11-10T00:10:55.207Z,783.72
2017-11-10T00:10:59.296Z,783.7
2017-11-10T00:11:04.007Z,783.73
2017-11-10T00:11:08.236Z,783.76
2017-11-10T00:11:12.484Z,783.72
2017-11-10T00:11:16.959Z,783.74
2017-11-10T00:11:21.172Z,783.74
2017-11-10T00:11:25.667Z,783.72
2017-11-10T00:11:30.164Z,783.74
2017-11-10T00:11:34.382Z,783.73
2017-11-10T00:11:38.610Z,783.72
2017-11-10T00:11:42.972Z,783.73
2017-11-10T00:11:47.313Z,783.74
2017-11-10T00:11:51.691Z,783.72
2017-11-10T00:11:56.190Z,783.71
2017-11-10T00:12:00.668Z,783.74
2017-11-10T00:12:05.021Z,783.69
2017-11-10T00:12:09.536Z,783.69
2017-11-10T00:12:13.768Z,783.74
2017-11-10T00:12:18.159Z,783.71
2017-11-10T00:12:22.535Z,783.74
2017-11-10T00:12:27.028Z,783.7
2017-11-10T00:12:31.250Z,783.73
2017-11-10T00:12:35.339Z,783.75
2017-11-10T00:12:39.817Z,783.73
2017-11-10T00:12:43.903Z,783.69
2017-11-10T00:12:48.274Z,783.7
2017-11-10T00:12:52.760Z,783.64
2017-11-10T00:12:57.111Z,783.73
2017-11-10T00:13:01.622Z,783.71
2017-11-10T00:13:06.075Z,783.68
2017-11-10T00:13:10.441Z,783.74
2017-11-10T00:13:14.945Z,783.71
2017-11-10T00:13:19.162Z,783.74
2017-11-10T00:13:23.658Z,783.74
2017-11-10T00:13:28.012Z,783.77
2017-11-10T00:13:32.094Z,783.73
2017-11-10T00:13:36.575Z,783.76
2017-11-10T00:13:40.983Z,783.77
2017-11-10T00:13:45.335Z,783.74
2017-11-10T00:13:49.690Z,783.77
2017-11-10T00:13:54.177Z,783.76
2017-11-10T00:13:58.659Z,783.75
2017-11-10T00:14:03.004Z,783.77
2017-11-10T00:14:07.505Z,783.78
2017-11-10T00:14:11.588Z,783.75
2017-11-10T00:14:15.951Z,783.75
2017-11-10T00:14:20.186Z,783.73
2017-11-10T00:14:24.561Z,783.74
2017-11-10T00:14:29.040Z,783.77
2017-11-10T00:14:33.404Z,783.75
2017-11-10T00:14:37.624Z,783.75
2017-11-10T00:14:41.975Z,783.78
2017-11-10T00:14:46.327Z,783.71
2017-11-10T00:14:50.833Z,783.75
2017-11-10T00:14:55.321Z,783.78
2017-11-10T00:14:59.697Z,783.73
2017-11-10T00:15:04.066Z,783.72
2017-11-10T00:15:08.429Z,783.76
2017-11-10T00:15:12.784Z,783.74
2017-11-10T00:15:17.144Z,783.74
2017-11-10T00:15:21.093Z,783.74
2017-11-10T00:15:25.592Z,783.73
2017-11-10T00:15:30.077Z,783.71
2017-11-10T00:15:34.292Z,783.75
2017-11-10T00:15:38.773Z,783.74
2017-11-10T00:15:43.136Z,783.77
2017-11-10T00:15:47.217Z,783.75
2017-11-10T00:15:51.592Z,783.76
2017-11-10T00:15:55.825Z,783.77
2017-11-10T00:16:00.316Z,783.73
2017-11-10T00:16:04.805Z,783.73
2017-11-10T00:16:08.899Z,783.69
2017-11-10T00:16:13.248Z,783.68
2017-11-10T00:16:17.465Z,783.71
2017-11-10T00:16:21.694Z,783.68
2017-11-10T00:16:26.049Z,783.67
2017-11-10T00:16:30.423Z,783.75
2017-11-10T00:16:34.779Z,783.75
2017-11-10T00:16:39.128Z,783.74
2017-11-10T00:16:43.349Z,783.73
2017-11-10T00:16:47.710Z,783.72
2017-11-10T00:16:52.193Z,783.75
2017-11-10T00:16:56.411Z,783.74
2017-11-10T00:17:00.772Z,783.74
2017-11-10T00:17:05.144Z,783.74
2017-11-10T00:17:09.498Z,783.76
2017-11-10T00:17:13.862Z,783.73
2017-11-10T00:17:18.225Z,783.74
2017-11-10T00:17:22.585Z,783.71
2017-11-10T00:17:26.942Z,783.76
2017-11-10T00:17:31.458Z,783.77
2017-11-10T00:17:35.859Z,783.77
2017-11-10T00:17:40.346Z,783.76
2017-11-10T00:17:44.717Z,783.76
2017-11-10T00:17:49.215Z,783.76
2017-11-10T00:17:53.559Z,783.76
2017-11-10T00:17:57.904Z,783.77
2017-11-10T00:18:02.416Z,783.72
2017-11-10T00:18:06.769Z,783.73
2017-11-10T00:18:11.263Z,783.74
2017-11-10T00:18:15.478Z,783.71
2017-11-10T00:18:19.980Z,783.7
2017-11-10T00:18:24.344Z,783.7
2017-11-10T00:18:28.742Z,783.68
2017-11-10T00:18:33.103Z,783.74
2017-11-10T00:18:37.322Z,783.75
2017-11-10T00:18:41.811Z,783.76
2017-11-10T00:18:46.168Z,783.67
2017-11-10T00:18:50.516Z,783.69
2017-11-10T00:18:55.005Z,783.69
2017-11-10T00:18:59.494Z,783.7
2017-11-10T00:19:04.158Z,783.77
2017-11-10T00:19:08.668Z,783.75
2017-11-10T00:19:13.039Z,783.74
2017-11-10T00:19:17.264Z,783.74
2017-11-10T00:19:21.645Z,783.8
2017-11-10T00:19:26.002Z,783.77
2017-11-10T00:19:30.491Z,783.76
2017-11-10T00:19:34.717Z,783.74
2017-11-10T00:19:39.231Z,783.75
2017-11-10T00:19:43.573Z,783.79
2017-11-10T00:19:48.075Z,783.74
2017-11-10T00:19:52.303Z,783.7
2017-11-10T00:19:56.534Z,783.7
2017-11-10T00:20:01.053Z,783.67
2017-11-10T00:20:05.553Z,783.72
2017-11-10T00:20:09.916Z,783.74
2017-11-10T00:20:14.004Z,783.75
2017-11-10T00:20:18.221Z,783.73
2017-11-10T00:20:22.573Z,783.68
2017-11-10T00:20:26.816Z,783.7
2017-11-10T00:20:31.333Z,783.7
2017-11-10T00:20:35.676Z,783.68
2017-11-10T00:20:40.166Z,783.75
2017-11-10T00:20:44.564Z,783.76
2017-11-10T00:20:49.070Z,783.73
2017-11-10T00:20:53.155Z,783.74
2017-11-10T00:20:57.638Z,783.74
2017-11-10T00:21:02.179Z,783.77
2017-11-10T00:21:06.527Z,783.74
2017-11-10T00:21:10.941Z,783.74
2017-11-10T00:21:15.289Z,783.74
2017-11-10T00:21:19.377Z,783.71
2017-11-10T00:21:23.905Z,783.74
2017-11-10T00:21:28.401Z,783.76
2017-11-10T00:21:32.755Z,783.76
2017-11-10T00:21:37.111Z,783.76
2017-11-10T00:21:41.598Z,783.75
2017-11-10T00:21:46.078Z,783.77
2017-11-10T00:21:50.568Z,783.77
2017-11-10T00:21:54.920Z,783.77
2017-11-10T00:21:59.424Z,783.77
2017-11-10T00:22:04.042Z,783.79
2017-11-10T00:22:08.260Z,783.74
2017-11-10T00:22:12.769Z,783.74
2017-11-10T00:22:17.180Z,783.77
2017-11-10T00:22:21.401Z,783.73
2017-11-10T00:22:25.768Z,783.73
2017-11-10T00:22:29.994Z,783.75
2017-11-10T00:22:34.346Z,783.76
2017-11-10T00:22:38.705Z,783.75
2017-11-10T00:22:43.194Z,783.79
2017-11-10T00:22:47.684Z,783.76
2017-11-10T00:22:52.170Z,783.78
2017-11-10T00:22:56.663Z,783.77
2017-11-10T00:23:01.158Z,783.75
2017-11-10T00:23:05.899Z,783.78
2017-11-10T00:23:10.396Z,783.77
2017-11-10T00:23:14.476Z,783.76
2017-11-10T00:23:18.836Z,783.8
2017-11-10T00:23:23.062Z,783.8
2017-11-10T00:23:27.566Z,783.8
2017-11-10T00:23:31.926Z,783.77
2017-11-10T00:23:36.416Z,783.75
2017-11-10T00:23:40.904Z,783.73
2017-11-10T00:23:45.249Z,783.72
2017-11-10T00:23:49.602Z,783.76
2017-11-10T00:23:53.843Z,783.73
2017-11-10T00:23:58.203Z,783.77
2017-11-10T00:24:02.702Z,783.77
2017-11-10T00:24:07.066Z,783.79
2017-11-10T00:24:11.415Z,783.77
2017-11-10T00:24:15.770Z,783.76
2017-11-10T00:24:19.858Z,783.75
2017-11-10T00:24:24.212Z,783.75
2017-11-10T00:24:28.697Z,783.78
2017-11-10T00:24:33.188Z,783.75
2017-11-10T00:24:37.670Z,783.75
2017-11-10T00:24:42.023Z,783.77
2017-11-10T00:24:46.513Z,783.77
2017-11-10T00:24:50.994Z,783.75
2017-11-10T00:24:55.382Z,783.77
2017-11-10T00:24:59.764Z,783.73
2017-11-10T00:25:04.254Z,783.76
2017-11-10T00:25:08.612Z,783.76
2017-11-10T00:25:12.961Z,783.73
2017-11-10T00:25:17.456Z,783.76
2017-11-10T00:25:21.829Z,783.76
2017-11-10T00:25:26.052Z,783.79
2017-11-10T00:25:30.396Z,783.76
2017-11-10T00:25:34.894Z,783.75
2017-11-10T00:25:39.476Z,783.76
2017-11-10T00:25:43.827Z,783.77
2017-11-10T00:25:48.323Z,783.75
2017-11-10T00:25:52.831Z,783.77
2017-11-10T00:25:57.194Z,783.75
2017-11-10T00:26:01.540Z,783.77
2017-11-10T00:26:05.903Z,783.75
2017-11-10T00:26:10.397Z,783.76
2017-11-10T00:26:14.614Z,783.76
2017-11-10T00:26:18.863Z,783.76
2017-11-10T00:26:23.219Z,783.75
2017-11-10T00:26:27.711Z,783.75
2017-11-10T00:26:32.077Z,783.77
2017-11-10T00:26:36.570Z,783.75
2017-11-10T00:26:40.941Z,783.76
2017-11-10T00:26:45.320Z,783.81
2017-11-10T00:26:49.673Z,783.71
2017-11-10T00:26:54.024Z,783.78
2017-11-10T00:26:58.380Z,783.78
2017-11-10T00:27:02.743Z,783.79
2017-11-10T00:27:07.103Z,783.78
2017-11-10T00:27:11.466Z,783.75
2017-11-10T00:27:15.687Z,783.75
2017-11-10T00:27:20.040Z,783.76
2017-11-10T00:27:24.395Z,783.78
2017-11-10T00:27:28.889Z,783.77
2017-11-10T00:27:33.374Z,783.78
2017-11-10T00:27:37.735Z,783.78
2017-11-10T00:27:42.237Z,783.77
2017-11-10T00:27:46.718Z,783.75
2017-11-10T00:27:51.212Z,783.77
2017-11-10T00:27:55.707Z,783.76
2017-11-10T00:28:00.063Z,783.77
2017-11-10T00:28:04.745Z,783.77
2017-11-10T00:28:08.967Z,783.79
2017-11-10T00:28:13.062Z,783.78
2017-11-10T00:28:17.552Z,783.75
2017-11-10T00:28:21.643Z,783.8
2017-11-10T00:28:26.131Z,783.76
2017-11-10T00:28:30.620Z,783.77
2017-11-10T00:28:34.983Z,783.8
2017-11-10T00:28:39.206Z,783.75
2017-11-10T00:28:43.703Z,783.76
2017-11-10T00:28:48.205Z,783.76
2017-11-10T00:28:52.562Z,783.78
2017-11-10T00:28:56.909Z,783.77
2017-11-10T00:29:01.270Z,783.78
2017-11-10T00:29:05.618Z,783.77
2017-11-10T00:29:10.109Z,783.78
2017-11-10T00:29:14.474Z,783.78
2017-11-10T00:29:18.821Z,783.77
2017-11-10T00:29:23.298Z,783.79
2017-11-10T00:29:27.519Z,783.78
2017-11-10T00:29:32.035Z,783.76
2017-11-10T00:29:36.384Z,783.77
2017-11-10T00:29:40.882Z,783.79
2017-11-10T00:29:45.393Z,783.78
2017-11-10T00:29:49.878Z,783.78
2017-11-10T00:29:53.987Z,783.82
2017-11-10T00:29:58.468Z,783.75
2017-11-10T00:30:02.705Z,783.73
2017-11-10T00:30:07.218Z,783.79
2017-11-10T00:30:11.448Z,783.78
2017-11-10T00:30:15.939Z,783.82
2017-11-10T00:30:20.175Z,783.83
2017-11-10T00:30:24.675Z,783.77
2017-11-10T00:30:28.913Z,783.81
2017-11-10T00:30:33.272Z,783.76
2017-11-10T00:30:37.762Z,783.81
2017-11-10T00:30:42.111Z,783.77
2017-11-10T00:30:46.593Z,783.81
2017-11-10T00:30:50.966Z,783.77
2017-11-10T00:30:55.510Z,783.8
2017-11-10T00:30:59.861Z,783.79
2017-11-10T00:31:04.271Z,783.79
2017-11-10T00:31:08.758Z,783.83
2017-11-10T00:31:13.106Z,783.78
2017-11-10T00:31:17.475Z,783.74
2017-11-10T00:31:21.702Z,783.75
2017-11-10T00:31:26.189Z,783.75
2017-11-10T00:31:30.694Z,783.78
2017-11-10T00:31:35.059Z,783.8
2017-11-10T00:31:39.422Z,783.84
2017-11-10T00:31:43.788Z,783.8
2017-11-10T00:31:48.145Z,783.81
2017-11-10T00:31:52.641Z,783.8
2017-11-10T00:31:56.878Z,783.76
2017-11-10T00:32:01.388Z,783.8
2017-11-10T00:32:05.735Z,783.81
2017-11-10T00:32:09.973Z,783.79
2017-11-10T00:32:14.468Z,783.8
2017-11-10T00:32:18.960Z,783.84
2017-11-10T00:32:23.327Z,783.8
2017-11-10T00:32:27.722Z,783.83
2017-11-10T00:32:32.207Z,783.76
2017-11-10T00:32:36.755Z,783.8
2017-11-10T00:32:40.998Z,783.79
2017-11-10T00:32:45.483Z,783.83
2017-11-10T00:32:49.857Z,783.78
2017-11-10T00:32:54.211Z,783.79
2017-11-10T00:32:58.435Z,783.8
2017-11-10T00:33:03.279Z,783.77
2017-11-10T00:33:07.621Z,783.77
2017-11-10T00:33:12.101Z,783.77
2017-11-10T00:33:16.613Z,783.75
2017-11-10T00:33:20.849Z,783.75
2017-11-10T00:33:25.205Z,783.8
2017-11-10T00:33:29.693Z,783.8
2017-11-10T00:33:34.089Z,783.79
2017-11-10T00:33:38.593Z,783.83
2017-11-10T00:33:42.949Z,783.8
2017-11-10T00:33:47.186Z,783.82
2017-11-10T00:33:51.670Z,783.81
2017-11-10T00:33:56.163Z,783.81
2017-11-10T00:34:00.532Z,783.78
2017-11-10T00:34:04.902Z,783.82
2017-11-10T00:34:09.386Z,783.81
2017-11-10T00:34:13.609Z,783.82
2017-11-10T00:34:17.966Z,783.82
2017-11-10T00:34:22.462Z,783.82
2017-11-10T00:34:26.962Z,783.82
2017-11-10T00:34:31.445Z,783.8
2017-11-10T00:34:35.279Z,783.8
2017-11-10T00:34:39.790Z,783.79
2017-11-10T00:34:44.137Z,783.79
2017-11-10T00:34:48.493Z,783.81
2017-11-10T00:34:52.865Z,783.83
2017-11-10T00:34:57.243Z,783.81
2017-11-10T00:35:01.465Z,783.82
2017-11-10T00:35:05.689Z,783.82
2017-11-10T00:35:10.184Z,783.79
2017-11-10T00:35:14.540Z,783.8
2017-11-10T00:35:18.759Z,783.77
2017-11-10T00:35:22.828Z,783.82
2017-11-10T00:35:27.185Z,783.81
2017-11-10T00:35:31.543Z,783.8
2017-11-10T00:35:35.903Z,783.81
2017-11-10T00:35:40.393Z,783.81
2017-11-10T00:35:44.890Z,783.81
2017-11-10T00:35:49.419Z,783.8
2017-11-10T00:35:53.930Z,783.82
2017-11-10T00:35:58.412Z,783.83
2017-11-10T00:36:03.212Z,783.83
2017-11-10T00:36:07.432Z,783.83
2017-11-10T00:36:11.648Z,783.84
2017-11-10T00:36:16.002Z,783.84
2017-11-10T00:36:19.950Z,783.83
2017-11-10T00:36:24.310Z,783.81
2017-11-10T00:36:28.835Z,783.83
2017-11-10T00:36:33.325Z,783.81
2017-11-10T00:36:37.807Z,783.79
2017-11-10T00:36:42.311Z,783.77
2017-11-10T00:36:46.667Z,783.83
2017-11-10T00:36:51.040Z,783.83
2017-11-10T00:36:55.431Z,783.82
2017-11-10T00:36:59.916Z,783.83
2017-11-10T00:37:04.586Z,783.84
2017-11-10T00:37:08.847Z,783.81
2017-11-10T00:37:13.221Z,783.81
2017-11-10T00:37:17.719Z,783.84
2017-11-10T00:37:22.231Z,783.79
2017-11-10T00:37:26.575Z,783.81
2017-11-10T00:37:30.932Z,783.83
2017-11-10T00:37:35.436Z,783.81
2017-11-10T00:37:39.782Z,783.79
2017-11-10T00:37:44.148Z,783.79
2017-11-10T00:37:48.655Z,783.78
2017-11-10T00:37:53.150Z,783.82
2017-11-10T00:37:57.640Z,783.84
2017-11-10T00:38:02.181Z,783.84
2017-11-10T00:38:06.548Z,783.83
2017-11-10T00:38:10.902Z,783.83
2017-11-10T00:38:15.264Z,783.82
2017-11-10T00:38:19.611Z,783.82
2017-11-10T00:38:24.093Z,783.82
2017-11-10T00:38:28.463Z,783.87
2017-11-10T00:38:32.976Z,783.83
2017-11-10T00:38:37.390Z,783.84
2017-11-10T00:38:41.608Z,783.86
2017-11-10T00:38:46.093Z,783.85
2017-11-10T00:38:50.445Z,783.86
2017-11-10T00:38:54.810Z,783.88
2017-11-10T00:38:59.298Z,783.89
2017-11-10T00:39:03.988Z,783.87
2017-11-10T00:39:08.351Z,783.88
2017-11-10T00:39:12.583Z,783.87
2017-11-10T00:39:17.079Z,783.89
2017-11-10T00:39:21.036Z,783.87
2017-11-10T00:39:25.390Z,783.87
2017-11-10T00:39:29.774Z,783.82
2017-11-10T00:39:34.113Z,783.9
2017-11-10T00:39:38.597Z,783.85
2017-11-10T00:39:43.095Z,783.86
2017-11-10T00:39:47.451Z,783.88
2017-11-10T00:39:51.672Z,783.88
2017-11-10T00:39:56.197Z,783.91
2017-11-10T00:40:00.513Z,783.92
2017-11-10T00:40:04.782Z,783.91
2017-11-10T00:40:09.151Z,783.92
2017-11-10T00:40:13.642Z,783.89
2017-11-10T00:40:18.160Z,783.9
2017-11-10T00:40:22.681Z,783.91
2017-11-10T00:40:27.062Z,783.9
2017-11-10T00:40:31.554Z,783.91
2017-11-10T00:40:35.933Z,783.93
2017-11-10T00:40:40.149Z,783.89
2017-11-10T00:40:44.629Z,783.92
2017-11-10T00:40:49.120Z,783.89
2017-11-10T00:40:53.659Z,783.9
2017-11-10T00:40:57.880Z,783.86
2017-11-10T00:41:02.385Z,783.92
2017-11-10T00:41:06.605Z,783.94
2017-11-10T00:41:10.959Z,783.92
2017-11-10T00:41:15.319Z,783.9
2017-11-10T00:41:19.538Z,783.89
2017-11-10T00:41:23.904Z,783.91
2017-11-10T00:41:28.420Z,783.93
2017-11-10T00:41:32.822Z,783.91
2017-11-10T00:41:37.169Z,783.92
2017-11-10T00:41:41.513Z,783.9
2017-11-10T00:41:46.015Z,783.91
2017-11-10T00:41:50.373Z,783.93
2017-11-10T00:41:54.877Z,783.96
2017-11-10T00:41:59.238Z,783.93
2017-11-10T00:42:03.471Z,783.91
2017-11-10T00:42:07.961Z,783.95
2017-11-10T00:42:12.091Z,783.93
2017-11-10T00:42:16.449Z,783.91
2017-11-10T00:42:20.538Z,783.92
2017-11-10T00:42:25.036Z,783.95
2017-11-10T00:42:29.391Z,783.94
2017-11-10T00:42:33.886Z,783.92
2017-11-10T00:42:38.249Z,783.92
2017-11-10T00:42:42.609Z,783.91
2017-11-10T00:42:46.972Z,783.9
2017-11-10T00:42:51.339Z,783.89
2017-11-10T00:42:55.823Z,783.88
2017-11-10T00:43:00.040Z,783.89
2017-11-10T00:43:04.393Z,783.87
2017-11-10T00:43:08.874Z,783.87
2017-11-10T00:43:13.230Z,783.95
2017-11-10T00:43:17.629Z,783.95
2017-11-10T00:43:22.144Z,783.95
2017-11-10T00:43:26.378Z,783.96
2017-11-10T00:43:30.881Z,783.97
2017-11-10T00:43:35.253Z,783.95
2017-11-10T00:43:39.614Z,783.91
2017-11-10T00:43:43.982Z,783.94
2017-11-10T00:43:48.487Z,783.96
2017-11-10T00:43:52.980Z,783.97
2017-11-10T00:43:57.477Z,783.99
2017-11-10T00:44:01.975Z,783.98
2017-11-10T00:44:06.471Z,783.93
2017-11-10T00:44:10.832Z,783.92
2017-11-10T00:44:15.063Z,783.93
2017-11-10T00:44:19.541Z,783.91
2017-11-10T00:44:23.913Z,783.95
2017-11-10T00:44:28.129Z,783.97
2017-11-10T00:44:32.614Z,783.95
2017-11-10T00:44:37.127Z,784.02
2017-11-10T00:44:41.621Z,784.01
2017-11-10T00:44:45.983Z,783.98
2017-11-10T00:44:50.349Z,783.99
2017-11-10T00:44:54.728Z,783.97
2017-11-10T00:44:59.077Z,783.98
2017-11-10T00:45:03.445Z,783.96
2017-11-10T00:45:07.930Z,783.99
2017-11-10T00:45:12.283Z,783.99
2017-11-10T00:45:16.514Z,783.99
2017-11-10T00:45:20.748Z,783.97
2017-11-10T00:45:25.252Z,783.96
2017-11-10T00:45:29.614Z,783.99
2017-11-10T00:45:33.835Z,783.96
2017-11-10T00:45:38.188Z,784.01
2017-11-10T00:45:42.547Z,783.98
2017-11-10T00:45:47.054Z,783.97
2017-11-10T00:45:51.396Z,783.95
2017-11-10T00:45:55.884Z,783.97
2017-11-10T00:46:00.237Z,783.97
2017-11-10T00:46:04.594Z,783.98
2017-11-10T00:46:08.953Z,783.98
2017-11-10T00:46:13.311Z,783.99
2017-11-10T00:46:17.657Z,783.98
2017-11-10T00:46:21.618Z,783.98
2017-11-10T00:46:25.991Z,784
2017-11-10T00:46:30.478Z,784
2017-11-10T00:46:34.689Z,783.99
2017-11-10T00:46:39.175Z,783.98
2017-11-10T00:46:43.251Z,783.99
2017-11-10T00:46:47.596Z,783.96
2017-11-10T00:46:51.828Z,784.03
2017-11-10T00:46:56.326Z,784
2017-11-10T00:47:00.693Z,783.95
2017-11-10T00:47:04.931Z,784.01
2017-11-10T00:47:09.418Z,783.97
2017-11-10T00:47:13.768Z,783.99
2017-11-10T00:47:18.157Z,784
2017-11-10T00:47:22.373Z,783.98
2017-11-10T00:47:26.873Z,783.99
2017-11-10T00:47:31.391Z,784
2017-11-10T00:47:35.747Z,784
2017-11-10T00:47:40.227Z,783.98
2017-11-10T00:47:44.453Z,783.96
2017-11-10T00:47:48.813Z,783.99
2017-11-10T00:47:53.292Z,783.98
2017-11-10T00:47:57.786Z,783.98
2017-11-10T00:48:02.527Z,784
2017-11-10T00:48:06.629Z,784
2017-11-10T00:48:10.979Z,784
2017-11-10T00:48:15.478Z,783.99
2017-11-10T00:48:19.844Z,784
2017-11-10T00:48:24.354Z,784.01
2017-11-10T00:48:28.712Z,783.99
2017-11-10T00:48:33.207Z,784.02
2017-11-10T00:48:37.700Z,784.01
2017-11-10T00:48:42.185Z,784.01
2017-11-10T00:48:46.542Z,783.99
2017-11-10T00:48:50.767Z,784
2017-11-10T00:48:55.265Z,784.01
2017-11-10T00:48:59.619Z,784.03
2017-11-10T00:49:04.174Z,784.04
2017-11-10T00:49:08.409Z,784.02
2017-11-10T00:49:12.891Z,783.98
2017-11-10T00:49:17.376Z,783.96
2017-11-10T00:49:21.473Z,784.02
2017-11-10T00:49:25.957Z,784.03
2017-11-10T00:49:30.307Z,784.04
2017-11-10T00:49:34.818Z,784.06
2017-11-10T00:49:39.218Z,784
2017-11-10T00:49:43.720Z,784.03
2017-11-10T00:49:48.213Z,784.03
2017-11-10T00:49:52.748Z,784.04
2017-11-10T00:49:56.962Z,784.02
2017-11-10T00:50:01.182Z,784.01
2017-11-10T00:50:05.547Z,784.03
2017-11-10T00:50:10.025Z,784.03
2017-11-10T00:50:14.245Z,784.04
2017-11-10T00:50:18.608Z,784.06
2017-11-10T00:50:22.557Z,784.06
2017-11-10T00:50:26.915Z,784.07
2017-11-10T00:50:31.435Z,784.06
2017-11-10T00:50:35.920Z,784.06
2017-11-10T00:50:40.406Z,784.07
2017-11-10T00:50:44.631Z,784.04
2017-11-10T00:50:49.152Z,784.05
2017-11-10T00:50:53.651Z,784.05
2017-11-10T00:50:58.039Z,784.07
2017-11-10T00:51:02.700Z,784.04
2017-11-10T00:51:07.181Z,784.04
2017-11-10T00:51:11.679Z,784.05
2017-11-10T00:51:16.172Z,784.05
2017-11-10T00:51:20.522Z,784.07
2017-11-10T00:51:24.919Z,784.05
2017-11-10T00:51:29.418Z,784.05
2017-11-10T00:51:33.901Z,784.06
2017-11-10T00:51:38.407Z,784.09
2017-11-10T00:51:42.622Z,784.03
2017-11-10T00:51:47.117Z,784.08
2017-11-10T00:51:51.610Z,784.04
2017-11-10T00:51:56.114Z,784.07
2017-11-10T00:52:00.595Z,784.02
2017-11-10T00:52:05.107Z,784.03
2017-11-10T00:52:09.597Z,784.01
2017-11-10T00:52:14.090Z,784.03
2017-11-10T00:52:18.594Z,784.01
2017-11-10T00:52:22.675Z,784.03
2017-11-10T00:52:27.156Z,784.03
2017-11-10T00:52:31.653Z,784.01
2017-11-10T00:52:36.025Z,784.01
2017-11-10T00:52:40.507Z,783.97
2017-11-10T00:52:45.004Z,783.96
2017-11-10T00:52:49.216Z,783.98
2017-11-10T00:52:53.702Z,783.98
2017-11-10T00:52:58.213Z,783.97
2017-11-10T00:53:02.585Z,784
2017-11-10T00:53:06.938Z,784.05
2017-11-10T00:53:11.425Z,784.02
2017-11-10T00:53:15.922Z,784.04
2017-11-10T00:53:20.271Z,784.02
2017-11-10T00:53:24.640Z,784.01
2017-11-10T00:53:29.007Z,784.02
2017-11-10T00:53:33.489Z,784.03
2017-11-10T00:53:37.985Z,784.06
2017-11-10T00:53:42.345Z,784.03
2017-11-10T00:53:46.827Z,784.05
2017-11-10T00:53:51.172Z,784.03
2017-11-10T00:53:55.519Z,784.06
2017-11-10T00:54:00.015Z,784.02
2017-11-10T00:54:04.428Z,784.05
2017-11-10T00:54:08.543Z,784.02
2017-11-10T00:54:13.053Z,784
2017-11-10T00:54:17.418Z,784.06
2017-11-10T00:54:21.782Z,784.07
2017-11-10T00:54:26.148Z,784.1
2017-11-10T00:54:30.366Z,784.08
2017-11-10T00:54:34.718Z,784.1
2017-11-10T00:54:39.212Z,784.1
2017-11-10T00:54:43.556Z,784.14
2017-11-10T00:54:48.041Z,784.13
2017-11-10T00:54:52.416Z,784.11